CST,Max TemperatureF,Mean TemperatureF,Min TemperatureF,Max Dew PointF,MeanDew PointF,Min DewpointF,Max Humidity, Mean Humidity, Min Humidity, Max Sea Level PressureIn, Mean Sea Level PressureIn, Min Sea Level PressureIn, Max VisibilityMiles, Mean VisibilityMiles, Min VisibilityMiles, Max Wind SpeedMPH, Mean Wind SpeedMPH, Max Gust SpeedMPH,PrecipitationIn, CloudCover, Events, WindDirDegrees
2014-2-1,10,2,-5,1,-8,-17,67,62,56,30.09,29.99,29.75,10,10,4,21,12,,0.00,6,,298
2014-2-2,14,8,3,1,-2,-8,73,63,56,30.06,30.00,29.92,10,10,9,17,10,17,0.00,5,,258
2014-2-3,12,2,-9,1,-7,-20,73,59,47,30.36,30.17,30.04,10,10,1,26,11,29,0.00,5,,298
2014-2-4,3,-6,-16,-11,-18,-27,70,58,47,30.53,30.47,30.37,10,10,10,21,9,,0.00,1,,302
2014-2-5,0,-4,-9,-11,-14,-20,66,59,55,30.57,30.52,30.38,10,10,3,18,13,,0.00,5,,316
2014-2-6,6,0,-7,-6,-11,-18,66,60,52,30.37,30.14,29.93,10,8,1,29,18,36,0.00,4,,280
2014-2-7,6,-2,-11,-8,-14,-24,66,54,48,29.97,29.91,29.87,10,10,10,23,14,26,0.00,0,,267
2014-2-8,3,-6,-16,-6,-15,-29,78,63,53,30.25,30.09,29.96,10,9,3,14,3,,0.00,2,,358
2014-2-9,-4,-8,-14,-13,-20,-26,77,58,49,30.35,30.29,30.23,10,10,10,16,11,,0.00,0,,304
2014-2-10,0,-10,-20,-13,-20,-29,76,57,50,30.39,30.33,30.17,10,10,10,9,5,,0.00,0,,232
2014-2-11,26,10,-7,18,-2,-18,72,64,55,30.16,29.86,29.64,10,10,3,26,14,31,0.00,2,,225
2014-2-12,10,2,-5,1,-9,-18,73,60,51,30.08,29.82,29.26,10,9,0,28,11,34,0.00,3,,157
2014-2-13,12,4,-5,7,-10,-18,79,62,55,29.85,29.66,29.23,10,6,1,29,16,34,0.00,4,,351
2014-2-14,10,-2,-13,0,-12,-26,72,58,49,30.02,29.89,29.67,10,10,10,14,8,,0.00,2,,248
2014-2-15,10,2,-7,1,-6,-18,78,64,55,30.15,29.85,29.58,10,8,1,24,10,24,0.00,2,,13
2014-2-16,17,0,-16,9,-6,-27,73,66,54,30.11,29.86,29.63,10,6,1,26,9,34,0.00,5,,156
2014-2-17,35,26,17,23,18,9,74,68,56,29.64,29.54,29.41,10,10,3,21,13,22,0.00,2,,237
2014-2-18,32,24,15,23,17,9,80,70,64,29.69,29.56,29.40,10,10,10,20,12,24,0.00,1,,266
2014-2-19,33,22,12,21,15,3,80,71,56,29.67,29.53,29.42,10,10,2,23,10,26,0.00,4,,148
2014-2-20,21,10,0,16,2,-11,80,69,60,29.72,29.62,29.47,10,8,0,24,14,28,0.00,4,,331
2014-2-21,8,2,-5,-2,-10,-17,66,61,55,29.78,29.69,29.63,10,10,5,22,15,24,0.00,0,,306
2014-2-22,8,2,-5,-4,-10,-17,66,59,52,30.09,29.95,29.79,10,10,10,25,19,,0.00,0,,297
2014-2-23,6,0,-7,-6,-10,-18,66,59,52,30.28,30.21,30.09,10,10,10,24,19,29,0.00,2,,296
2014-2-24,0,-7,-14,-13,-19,-26,64,56,50,30.32,30.29,30.26,10,9,2,23,13,26,0.00,1,,297
2014-2-25,0,-6,-13,-15,-19,-26,59,55,46,30.39,30.30,30.16,10,10,8,24,17,23,0.00,0,,304
2014-2-26,10,0,-11,-2,-12,-27,65,55,45,30.15,29.86,29.66,10,9,0,32,20,43,0.00,3,,317
2014-2-27,3,-10,-22,-9,-19,-29,76,54,42,30.07,29.94,29.69,10,10,10,17,7,20,0.00,0,,174
2014-2-28,3,-6,-14,-6,-14,-27,71,59,49,30.29,29.90,29.60,10,7,0,30,14,34,0.00,3,,336